Time,TemperatureF,DewpointF,PressureIn,WindDirection,WindDirectionDegrees,WindSpeedMPH,WindSpeedGustMPH,Humidity,HourlyPrecipIn,Conditions,Clouds,dailyrainin,SoftwareType,DateUTC
2013-04-27 00:09:00,45.0,33.0,30.34,ENE,65,0.0,3.0,64,0.00,,,0.00,weatherlink.com 1.10,2013-04-27 04:09:00,
2013-04-27 00:24:00,44.7,34.0,30.33,East,82,0.0,2.0,66,0.00,,,0.00,weatherlink.com 1.10,2013-04-27 04:24:00,
2013-04-27 00:39:00,44.6,33.0,30.32,NE,51,2.0,3.0,65,0.00,,,0.00,weatherlink.com 1.10,2013-04-27 04:39:00,
2013-04-27 00:54:00,43.8,35.0,30.33,ENE,75,4.0,5.0,72,0.00,,,0.00,weatherlink.com 1.10,2013-04-27 04:54:00,
2013-04-27 01:09:00,42.9,36.0,30.34,ENE,66,4.0,5.0,78,0.00,,,0.00,weatherlink.com 1.10,2013-04-27 05:09:00,
2013-04-27 01:24:00,42.2,37.0,30.34,ENE,63,2.0,3.0,82,0.00,,,0.00,weatherlink.com 1.10,2013-04-27 05:24:00,
2013-04-27 01:39:00,42.1,37.0,30.32,ENE,63,0.0,1.0,83,0.00,,,0.00,weatherlink.com 1.10,2013-04-27 05:39:00,
2013-04-27 01:54:00,42.8,38.0,30.32,NE,55,0.0,2.0,82,0.00,,,0.00,weatherlink.com 1.10,2013-04-27 05:54:00,
2013-04-27 02:09:00,43.7,38.0,30.31,NW,313,0.0,3.0,81,0.00,,,0.00,weatherlink.com 1.10,2013-04-27 06:09:00,
2013-04-27 02:24:00,43.1,38.0,30.30,NW,313,0.0,1.0,83,0.00,,,0.00,weatherlink.com 1.10,2013-04-27 06:24:00,
2013-04-27 02:39:00,43.4,38.0,30.29,North,355,0.0,1.0,81,0.00,,,0.00,weatherlink.com 1.10,2013-04-27 06:39:00,
2013-04-27 02:54:00,43.9,37.0,30.28,NE,44,2.0,3.0,78,0.00,,,0.00,weatherlink.com 1.10,2013-04-27 06:54:00,
2013-04-27 03:09:00,44.2,36.0,30.28,ENE,75,2.0,4.0,74,0.00,,,0.00,weatherlink.com 1.10,2013-04-27 07:09:00,
2013-04-27 03:24:00,43.9,37.0,30.28,ENE,76,1.0,3.0,76,0.00,,,0.00,weatherlink.com 1.10,2013-04-27 07:24:00,
2013-04-27 03:39:00,43.7,37.0,30.27,ENE,63,2.0,5.0,76,0.00,,,0.00,weatherlink.com 1.10,2013-04-27 07:39:00,
2013-04-27 03:54:00,43.5,36.0,30.26,ENE,60,3.0,5.0,76,0.00,,,0.00,weatherlink.com 1.10,2013-04-27 07:54:00,
2013-04-27 04:09:00,43.5,36.0,30.27,ENE,75,3.0,4.0,76,0.00,,,0.00,weatherlink.com 1.10,2013-04-27 08:09:00,
2013-04-27 04:24:00,43.3,36.0,30.27,ENE,76,2.0,4.0,76,0.00,,,0.00,weatherlink.com 1.10,2013-04-27 08:24:00,
2013-04-27 04:39:00,43.3,36.0,30.26,ENE,68,4.0,5.0,75,0.00,,,0.00,weatherlink.com 1.10,2013-04-27 08:39:00,
2013-04-27 04:54:00,43.5,36.0,30.26,ENE,67,3.0,8.0,74,0.00,,,0.00,weatherlink.com 1.10,2013-04-27 08:54:00,
2013-04-27 05:09:00,43.6,36.0,30.26,ENE,65,3.0,6.0,74,0.00,,,0.00,weatherlink.com 1.10,2013-04-27 09:09:00,
2013-04-27 05:24:00,43.5,36.0,30.26,ENE,69,2.0,3.0,74,0.00,,,0.00,weatherlink.com 1.10,2013-04-27 09:24:00,
2013-04-27 05:39:00,43.5,36.0,30.27,ENE,69,1.0,3.0,74,0.00,,,0.00,weatherlink.com 1.10,2013-04-27 09:39:00,
2013-04-27 05:54:00,43.4,35.0,30.26,ENE,69,2.0,2.0,73,0.00,,,0.00,weatherlink.com 1.10,2013-04-27 09:54:00,
2013-04-27 06:09:00,43.3,36.0,30.26,ENE,69,0.0,2.0,76,0.00,,,0.00,weatherlink.com 1.10,2013-04-27 10:09:00,
2013-04-27 06:24:00,42.2,37.0,30.27,ENE,69,0.0,1.0,82,0.01,,,0.01,weatherlink.com 1.10,2013-04-27 10:24:00,
2013-04-27 06:39:00,41.1,37.0,30.27,ENE,69,0.0,2.0,86,0.01,,,0.01,weatherlink.com 1.10,2013-04-27 10:39:00,
2013-04-27 06:54:00,40.5,38.0,30.26,ENE,69,0.0,2.0,89,0.02,,,0.02,weatherlink.com 1.10,2013-04-27 10:54:00,
2013-04-27 07:09:00,40.6,38.0,30.25,ENE,66,1.0,4.0,89,0.02,,,0.02,weatherlink.com 1.10,2013-04-27 11:09:00,
2013-04-27 07:24:00,40.7,38.0,30.26,East,91,1.0,3.0,89,0.01,,,0.02,weatherlink.com 1.10,2013-04-27 11:24:00,
2013-04-27 07:39:00,40.9,38.0,30.26,East,81,1.0,2.0,89,0.01,,,0.02,weatherlink.com 1.10,2013-04-27 11:39:00,
2013-04-27 07:54:00,41.1,38.0,30.27,East,81,0.0,1.0,89,0.00,,,0.02,weatherlink.com 1.10,2013-04-27 11:54:00,
2013-04-27 08:09:00,41.7,38.0,30.27,East,81,0.0,1.0,87,0.00,,,0.02,weatherlink.com 1.10,2013-04-27 12:09:00,
2013-04-27 08:24:00,42.3,38.0,30.27,East,81,1.0,2.0,84,0.00,,,0.02,weatherlink.com 1.10,2013-04-27 12:24:00,
2013-04-27 08:39:00,42.8,38.0,30.27,East,79,2.0,3.0,84,0.00,,,0.02,weatherlink.com 1.10,2013-04-27 12:39:00,
2013-04-27 08:54:00,43.1,38.0,30.27,East,79,1.0,2.0,83,0.00,,,0.02,weatherlink.com 1.10,2013-04-27 12:54:00,
2013-04-27 09:09:00,43.1,38.0,30.27,ENE,77,1.0,3.0,82,0.00,,,0.02,weatherlink.com 1.10,2013-04-27 13:09:00,
2013-04-27 09:24:00,43.6,39.0,30.26,ENE,67,1.0,3.0,84,0.00,,,0.02,weatherlink.com 1.10,2013-04-27 13:24:00,
2013-04-27 09:39:00,43.8,39.0,30.26,ENE,77,0.0,3.0,82,0.00,,,0.02,weatherlink.com 1.10,2013-04-27 13:39:00,
2013-04-27 09:54:00,43.9,39.0,30.26,ENE,61,2.0,7.0,82,0.00,,,0.02,weatherlink.com 1.10,2013-04-27 13:54:00,
2013-04-27 10:09:00,44.2,38.0,30.25,ENE,67,2.0,3.0,80,0.00,,,0.02,weatherlink.com 1.10,2013-04-27 14:09:00,
2013-04-27 10:24:00,44.2,39.0,30.26,ENE,63,2.0,4.0,81,0.00,,,0.02,weatherlink.com 1.10,2013-04-27 14:24:00,
2013-04-27 10:39:00,44.2,39.0,30.26,ENE,67,2.0,8.0,81,0.00,,,0.02,weatherlink.com 1.10,2013-04-27 14:39:00,
2013-04-27 10:54:00,44.2,39.0,30.26,ENE,59,2.0,3.0,82,0.00,,,0.02,weatherlink.com 1.10,2013-04-27 14:54:00,
2013-04-27 11:09:00,44.5,39.0,30.26,NE,44,2.0,5.0,82,0.00,,,0.02,weatherlink.com 1.10,2013-04-27 15:09:00,
2013-04-27 11:25:00,45.0,40.0,30.26,NE,53,3.0,6.0,82,0.00,,,0.02,weatherlink.com 1.10,2013-04-27 15:25:00,
2013-04-27 11:40:00,45.3,40.0,30.26,ENE,61,3.0,5.0,82,0.00,,,0.02,weatherlink.com 1.10,2013-04-27 15:40:00,
2013-04-27 11:55:00,45.5,40.0,30.26,NE,51,3.0,6.0,82,0.00,,,0.02,weatherlink.com 1.10,2013-04-27 15:55:00,
2013-04-27 12:10:00,46.9,41.0,30.25,NNE,31,4.0,7.0,81,0.00,,,0.02,weatherlink.com 1.10,2013-04-27 16:10:00,
2013-04-27 12:25:00,46.9,41.0,30.25,ENE,60,3.0,8.0,81,0.00,,,0.02,weatherlink.com 1.10,2013-04-27 16:25:00,
2013-04-27 12:40:00,47.0,41.0,30.25,ENE,67,4.0,8.0,80,0.00,,,0.02,weatherlink.com 1.10,2013-04-27 16:40:00,
2013-04-27 12:55:00,45.9,41.0,30.25,ENE,74,3.0,7.0,82,0.00,,,0.02,weatherlink.com 1.10,2013-04-27 16:55:00,
2013-04-27 13:10:00,45.2,42.0,30.25,ENE,74,3.0,4.0,87,0.00,,,0.02,weatherlink.com 1.10,2013-04-27 17:10:00,
2013-04-27 13:25:00,44.3,42.0,30.25,ENE,67,1.0,3.0,91,0.01,,,0.03,weatherlink.com 1.10,2013-04-27 17:25:00,
2013-04-27 13:40:00,43.8,42.0,30.25,ENE,67,1.0,5.0,92,0.01,,,0.03,weatherlink.com 1.10,2013-04-27 17:40:00,
2013-04-27 13:55:00,43.3,42.0,30.26,ENE,62,1.0,3.0,94,0.02,,,0.04,weatherlink.com 1.10,2013-04-27 17:55:00,
2013-04-27 14:10:00,43.0,41.0,30.26,East,81,1.0,3.0,94,0.02,,,0.04,weatherlink.com 1.10,2013-04-27 18:10:00,
2013-04-27 14:25:00,42.6,41.0,30.26,ENE,74,2.0,3.0,95,0.01,,,0.04,weatherlink.com 1.10,2013-04-27 18:25:00,
2013-04-27 14:40:00,42.7,41.0,30.25,ENE,71,2.0,3.0,95,0.01,,,0.04,weatherlink.com 1.10,2013-04-27 18:40:00,
2013-04-27 14:55:00,42.9,42.0,30.25,ENE,70,2.0,3.0,95,0.00,,,0.04,weatherlink.com 1.10,2013-04-27 18:55:00,
2013-04-27 15:10:00,42.9,42.0,30.24,ENE,68,1.0,3.0,96,0.00,,,0.04,weatherlink.com 1.10,2013-04-27 19:10:00,
2013-04-27 15:25:00,43.2,42.0,30.24,ENE,63,2.0,4.0,96,0.00,,,0.04,weatherlink.com 1.10,2013-04-27 19:25:00,
2013-04-27 15:40:00,43.1,42.0,30.24,ENE,61,2.0,4.0,96,0.00,,,0.04,weatherlink.com 1.10,2013-04-27 19:40:00,
2013-04-27 15:55:00,43.0,42.0,30.24,NE,51,3.0,4.0,96,0.00,,,0.04,weatherlink.com 1.10,2013-04-27 19:55:00,
2013-04-27 16:10:00,43.3,42.0,30.24,ENE,68,2.0,4.0,96,0.01,,,0.05,weatherlink.com 1.10,2013-04-27 20:10:00,
2013-04-27 16:25:00,43.5,43.0,30.23,NE,55,2.0,4.0,97,0.01,,,0.05,weatherlink.com 1.10,2013-04-27 20:25:00,
2013-04-27 16:40:00,43.2,42.0,30.23,ENE,67,2.0,7.0,96,0.03,,,0.07,weatherlink.com 1.10,2013-04-27 20:40:00,
2013-04-27 16:55:00,43.3,43.0,30.22,ENE,67,2.0,5.0,97,0.04,,,0.08,weatherlink.com 1.10,2013-04-27 20:55:00,
2013-04-27 17:10:00,43.0,42.0,30.18,ENE,62,4.0,6.0,97,0.05,,,0.10,weatherlink.com 1.10,2013-04-27 21:10:00,
2013-04-27 17:25:00,43.1,42.0,30.19,NE,53,3.0,6.0,97,0.05,,,0.10,weatherlink.com 1.10,2013-04-27 21:25:00,
2013-04-27 17:40:00,42.8,42.0,30.20,ENE,76,2.0,6.0,97,0.03,,,0.10,weatherlink.com 1.10,2013-04-27 21:40:00,
2013-04-27 17:55:00,42.8,42.0,30.20,East,88,3.0,5.0,97,0.02,,,0.11,weatherlink.com 1.10,2013-04-27 21:55:00,
2013-04-27 18:10:00,42.7,42.0,30.21,ENE,74,3.0,7.0,97,0.01,,,0.11,weatherlink.com 1.10,2013-04-27 22:10:00,
2013-04-27 18:25:00,42.5,42.0,30.20,ENE,59,4.0,6.0,97,0.01,,,0.11,weatherlink.com 1.10,2013-04-27 22:25:00,
2013-04-27 18:40:00,42.3,42.0,30.20,NE,55,3.0,6.0,97,0.00,,,0.11,weatherlink.com 1.10,2013-04-27 22:40:00,
2013-04-27 18:55:00,42.3,42.0,30.19,ENE,66,4.0,8.0,97,0.00,,,0.11,weatherlink.com 1.10,2013-04-27 22:55:00,
2013-04-27 19:10:00,42.2,41.0,30.20,ENE,67,2.0,6.0,97,0.00,,,0.11,weatherlink.com 1.10,2013-04-27 23:10:00,
2013-04-27 19:25:00,42.1,41.0,30.19,ENE,73,4.0,5.0,97,0.00,,,0.11,weatherlink.com 1.10,2013-04-27 23:25:00,
2013-04-27 19:40:00,42.0,41.0,30.18,ENE,59,4.0,6.0,97,0.00,,,0.11,weatherlink.com 1.10,2013-04-27 23:40:00,
2013-04-27 19:55:00,42.0,41.0,30.18,ENE,69,3.0,8.0,97,0.00,,,0.11,weatherlink.com 1.10,2013-04-27 23:55:00,
2013-04-27 20:10:00,42.0,41.0,30.17,ENE,59,4.0,7.0,97,0.00,,,0.11,weatherlink.com 1.10,2013-04-28 00:10:00,
2013-04-27 20:25:00,41.9,41.0,30.18,ENE,65,4.0,7.0,97,0.00,,,0.11,weatherlink.com 1.10,2013-04-28 00:25:00,
2013-04-27 20:40:00,41.8,41.0,30.18,ENE,74,5.0,12.0,98,0.00,,,0.11,weatherlink.com 1.10,2013-04-28 00:40:00,
2013-04-27 20:55:00,41.8,41.0,30.17,NE,50,6.0,10.0,98,0.00,,,0.11,weatherlink.com 1.10,2013-04-28 00:55:00,
2013-04-27 21:10:00,41.5,41.0,30.17,NE,51,7.0,11.0,98,0.00,,,0.11,weatherlink.com 1.10,2013-04-28 01:10:00,
2013-04-27 21:25:00,41.5,41.0,30.17,ENE,72,5.0,11.0,98,0.01,,,0.12,weatherlink.com 1.10,2013-04-28 01:25:00,
2013-04-27 21:40:00,41.6,41.0,30.18,East,82,3.0,8.0,98,0.01,,,0.12,weatherlink.com 1.10,2013-04-28 01:40:00,
2013-04-27 21:55:00,41.7,41.0,30.19,ENE,76,5.0,9.0,98,0.01,,,0.12,weatherlink.com 1.10,2013-04-28 01:55:00,
2013-04-27 22:10:00,41.6,41.0,30.19,ENE,65,5.0,11.0,98,0.01,,,0.12,weatherlink.com 1.10,2013-04-28 02:10:00,
2013-04-27 22:25:00,41.6,41.0,30.19,NE,53,4.0,12.0,98,0.01,,,0.13,weatherlink.com 1.10,2013-04-28 02:25:00,
2013-04-27 22:40:00,41.5,41.0,30.19,ENE,65,8.0,8.0,98,0.02,,,0.14,weatherlink.com 1.10,2013-04-28 02:40:00,
2013-04-27 22:55:00,41.5,41.0,30.18,ENE,68,5.0,8.0,98,0.02,,,0.14,weatherlink.com 1.10,2013-04-28 02:55:00,
2013-04-27 23:10:00,41.2,41.0,30.18,ENE,67,7.0,13.0,98,0.03,,,0.15,weatherlink.com 1.10,2013-04-28 03:10:00,
2013-04-27 23:25:00,41.3,41.0,30.17,ENE,61,7.0,15.0,98,0.02,,,0.15,weatherlink.com 1.10,2013-04-28 03:25:00,
2013-04-27 23:40:00,41.3,41.0,30.17,ENE,61,7.0,11.0,98,0.02,,,0.16,weatherlink.com 1.10,2013-04-28 03:40:00,
2013-04-27 23:55:00,41.1,41.0,30.16,ENE,68,8.0,9.0,98,0.03,,,0.17,weatherlink.com 1.10,2013-04-28 03:55:00,